sensor_id;sensor_type;location;lat;lon;timestamp;P1;durP1;ratioP1;P2;durP2;ratioP2
10497;SDS011;5296;51.060;13.750;2023-02-03T00:04:25;5.60;;;3.03;;
10497;SDS011;5296;51.060;13.750;2023-02-03T00:09:26;7.07;;;3.10;;
10497;SDS011;5296;51.060;13.750;2023-02-03T00:14:28;6.33;;;3.07;;
10497;SDS011;5296;51.060;13.750;2023-02-03T00:19:30;7.97;;;3.13;;
10497;SDS011;5296;51.060;13.750;2023-02-03T00:24:31;8.20;;;3.40;;
10497;SDS011;5296;51.060;13.750;2023-02-03T00:29:33;6.87;;;2.90;;
10497;SDS011;5296;51.060;13.750;2023-02-03T00:34:34;7.83;;;3.43;;
10497;SDS011;5296;51.060;13.750;2023-02-03T00:39:36;5.53;;;3.27;;
10497;SDS011;5296;51.060;13.750;2023-02-03T00:44:38;7.63;;;3.17;;
10497;SDS011;5296;51.060;13.750;2023-02-03T00:49:39;3.97;;;2.80;;
10497;SDS011;5296;51.060;13.750;2023-02-03T00:54:41;6.60;;;3.00;;
10497;SDS011;5296;51.060;13.750;2023-02-03T00:59:43;6.93;;;3.45;;
10497;SDS011;5296;51.060;13.750;2023-02-03T01:04:44;6.00;;;2.70;;
10497;SDS011;5296;51.060;13.750;2023-02-03T01:09:46;7.03;;;2.92;;
10497;SDS011;5296;51.060;13.750;2023-02-03T01:14:48;5.13;;;2.30;;
10497;SDS011;5296;51.060;13.750;2023-02-03T01:19:50;5.80;;;2.37;;
10497;SDS011;5296;51.060;13.750;2023-02-03T01:24:52;4.00;;;2.40;;
10497;SDS011;5296;51.060;13.750;2023-02-03T01:29:54;5.53;;;2.00;;
10497;SDS011;5296;51.060;13.750;2023-02-03T01:34:56;4.47;;;2.00;;
10497;SDS011;5296;51.060;13.750;2023-02-03T01:39:57;6.50;;;2.17;;
10497;SDS011;5296;51.060;13.750;2023-02-03T01:45:00;3.33;;;1.52;;
10497;SDS011;5296;51.060;13.750;2023-02-03T01:50:07;3.67;;;2.00;;
10497;SDS011;5296;51.060;13.750;2023-02-03T01:55:14;4.57;;;1.90;;
10497;SDS011;5296;51.060;13.750;2023-02-03T02:00:17;3.63;;;1.70;;
10497;SDS011;5296;51.060;13.750;2023-02-03T02:10:31;4.73;;;1.53;;
10497;SDS011;5296;51.060;13.750;2023-02-03T02:47:09;2.73;;;1.50;;
10497;SDS011;5296;51.060;13.750;2023-02-03T02:52:18;3.15;;;1.70;;
10497;SDS011;5296;51.060;13.750;2023-02-03T02:57:23;2.43;;;1.67;;
10497;SDS011;5296;51.060;13.750;2023-02-03T03:02:33;2.17;;;1.30;;
10497;SDS011;5296;51.060;13.750;2023-02-03T03:07:58;3.50;;;1.83;;
10497;SDS011;5296;51.060;13.750;2023-02-03T03:13:01;2.20;;;1.97;;
10497;SDS011;5296;51.060;13.750;2023-02-03T03:23:19;1.87;;;1.53;;
10497;SDS011;5296;51.060;13.750;2023-02-03T03:28:26;2.27;;;1.70;;
10497;SDS011;5296;51.060;13.750;2023-02-03T03:33:31;4.23;;;1.90;;
10497;SDS011;5296;51.060;13.750;2023-02-03T03:38:37;3.00;;;1.73;;
10497;SDS011;5296;51.060;13.750;2023-02-03T03:43:42;1.97;;;1.53;;
10497;SDS011;5296;51.060;13.750;2023-02-03T03:53:55;4.83;;;2.40;;
10497;SDS011;5296;51.060;13.750;2023-02-03T03:59:01;2.97;;;1.97;;
10497;SDS011;5296;51.060;13.750;2023-02-03T04:04:04;5.13;;;2.17;;
10497;SDS011;5296;51.060;13.750;2023-02-03T04:09:07;2.27;;;2.00;;
10497;SDS011;5296;51.060;13.750;2023-02-03T04:14:09;2.27;;;2.03;;
10497;SDS011;5296;51.060;13.750;2023-02-03T04:19:11;2.90;;;2.30;;
10497;SDS011;5296;51.060;13.750;2023-02-03T04:24:12;2.80;;;2.60;;
10497;SDS011;5296;51.060;13.750;2023-02-03T04:29:14;2.90;;;2.70;;
10497;SDS011;5296;51.060;13.750;2023-02-03T04:34:15;2.63;;;2.43;;
10497;SDS011;5296;51.060;13.750;2023-02-03T04:39:17;3.17;;;2.70;;
10497;SDS011;5296;51.060;13.750;2023-02-03T04:44:19;3.40;;;3.10;;
10497;SDS011;5296;51.060;13.750;2023-02-03T04:49:20;3.67;;;3.38;;
10497;SDS011;5296;51.060;13.750;2023-02-03T04:54:22;3.78;;;3.35;;
10497;SDS011;5296;51.060;13.750;2023-02-03T04:59:24;4.03;;;3.50;;
10497;SDS011;5296;51.060;13.750;2023-02-03T05:04:25;4.20;;;3.80;;
10497;SDS011;5296;51.060;13.750;2023-02-03T05:09:27;3.92;;;3.63;;
10497;SDS011;5296;51.060;13.750;2023-02-03T05:14:29;4.32;;;3.92;;
10497;SDS011;5296;51.060;13.750;2023-02-03T05:19:30;4.60;;;4.18;;
10497;SDS011;5296;51.060;13.750;2023-02-03T05:24:33;4.38;;;3.78;;
10497;SDS011;5296;51.060;13.750;2023-02-03T05:29:35;4.05;;;3.75;;
10497;SDS011;5296;51.060;13.750;2023-02-03T05:34:37;4.10;;;3.78;;
10497;SDS011;5296;51.060;13.750;2023-02-03T05:39:41;4.63;;;4.22;;
10497;SDS011;5296;51.060;13.750;2023-02-03T05:44:43;4.57;;;4.03;;
10497;SDS011;5296;51.060;13.750;2023-02-03T05:49:45;4.70;;;4.13;;
10497;SDS011;5296;51.060;13.750;2023-02-03T05:54:46;4.65;;;4.20;;
10497;SDS011;5296;51.060;13.750;2023-02-03T05:59:48;4.57;;;4.22;;
10497;SDS011;5296;51.060;13.750;2023-02-03T06:04:50;4.63;;;4.22;;
10497;SDS011;5296;51.060;13.750;2023-02-03T06:09:52;4.75;;;4.35;;
10497;SDS011;5296;51.060;13.750;2023-02-03T06:14:53;4.93;;;4.13;;
10497;SDS011;5296;51.060;13.750;2023-02-03T06:19:55;4.68;;;4.28;;
10497;SDS011;5296;51.060;13.750;2023-02-03T06:24:57;5.22;;;4.32;;
10497;SDS011;5296;51.060;13.750;2023-02-03T06:29:59;4.65;;;4.03;;
10497;SDS011;5296;51.060;13.750;2023-02-03T06:35:01;9.02;;;4.78;;
10497;SDS011;5296;51.060;13.750;2023-02-03T06:40:03;3.95;;;3.65;;
10497;SDS011;5296;51.060;13.750;2023-02-03T06:45:06;4.15;;;3.55;;
10497;SDS011;5296;51.060;13.750;2023-02-03T06:50:10;5.32;;;3.90;;
10497;SDS011;5296;51.060;13.750;2023-02-03T06:55:13;3.92;;;3.63;;
10497;SDS011;5296;51.060;13.750;2023-02-03T07:00:16;4.32;;;3.92;;
10497;SDS011;5296;51.060;13.750;2023-02-03T07:05:20;4.65;;;4.25;;
10497;SDS011;5296;51.060;13.750;2023-02-03T07:10:22;4.95;;;4.00;;
10497;SDS011;5296;51.060;13.750;2023-02-03T07:15:24;4.57;;;3.67;;
10497;SDS011;5296;51.060;13.750;2023-02-03T07:20:26;4.13;;;3.67;;
10497;SDS011;5296;51.060;13.750;2023-02-03T07:25:30;4.50;;;3.28;;
10497;SDS011;5296;51.060;13.750;2023-02-03T07:30:32;3.55;;;3.25;;
10497;SDS011;5296;51.060;13.750;2023-02-03T07:35:34;5.13;;;3.13;;
10497;SDS011;5296;51.060;13.750;2023-02-03T07:40:36;4.38;;;3.10;;
10497;SDS011;5296;51.060;13.750;2023-02-03T07:45:39;2.80;;;2.60;;
10497;SDS011;5296;51.060;13.750;2023-02-03T07:50:42;3.13;;;2.83;;
10497;SDS011;5296;51.060;13.750;2023-02-03T07:55:44;3.55;;;2.70;;
10497;SDS011;5296;51.060;13.750;2023-02-03T08:00:46;3.00;;;2.72;;
10497;SDS011;5296;51.060;13.750;2023-02-03T08:05:48;2.70;;;2.50;;
10497;SDS011;5296;51.060;13.750;2023-02-03T08:10:50;2.45;;;2.25;;
10497;SDS011;5296;51.060;13.750;2023-02-03T08:15:52;2.95;;;2.20;;
10497;SDS011;5296;51.060;13.750;2023-02-03T08:20:54;2.70;;;2.50;;
10497;SDS011;5296;51.060;13.750;2023-02-03T08:25:55;2.58;;;2.15;;
10497;SDS011;5296;51.060;13.750;2023-02-03T08:30:57;2.40;;;2.20;;
10497;SDS011;5296;51.060;13.750;2023-02-03T08:35:59;2.15;;;1.90;;
10497;SDS011;5296;51.060;13.750;2023-02-03T08:41:05;2.40;;;2.20;;
10497;SDS011;5296;51.060;13.750;2023-02-03T08:46:09;2.35;;;1.90;;
10497;SDS011;5296;51.060;13.750;2023-02-03T08:51:12;3.78;;;2.10;;
10497;SDS011;5296;51.060;13.750;2023-02-03T08:56:16;2.78;;;2.42;;
10497;SDS011;5296;51.060;13.750;2023-02-03T09:01:18;3.00;;;2.45;;
10497;SDS011;5296;51.060;13.750;2023-02-03T09:06:19;4.43;;;2.50;;
10497;SDS011;5296;51.060;13.750;2023-02-03T09:11:25;3.25;;;2.33;;
10497;SDS011;5296;51.060;13.750;2023-02-03T09:16:27;2.72;;;2.33;;
10497;SDS011;5296;51.060;13.750;2023-02-03T09:21:31;2.55;;;2.35;;
10497;SDS011;5296;51.060;13.750;2023-02-03T09:26:46;4.22;;;2.45;;
10497;SDS011;5296;51.060;13.750;2023-02-03T09:31:48;4.03;;;2.50;;
10497;SDS011;5296;51.060;13.750;2023-02-03T09:36:53;3.58;;;2.53;;
10497;SDS011;5296;51.060;13.750;2023-02-03T09:47:27;2.70;;;2.22;;
10497;SDS011;5296;51.060;13.750;2023-02-03T09:52:31;3.75;;;2.58;;
10497;SDS011;5296;51.060;13.750;2023-02-03T09:57:36;3.70;;;2.72;;
10497;SDS011;5296;51.060;13.750;2023-02-03T10:13:26;4.50;;;2.38;;
10497;SDS011;5296;51.060;13.750;2023-02-03T10:18:39;3.88;;;2.45;;
10497;SDS011;5296;51.060;13.750;2023-02-03T10:23:44;6.15;;;2.60;;
10497;SDS011;5296;51.060;13.750;2023-02-03T10:28:50;4.00;;;2.30;;
10497;SDS011;5296;51.060;13.750;2023-02-03T10:33:59;3.33;;;2.53;;
10497;SDS011;5296;51.060;13.750;2023-02-03T10:44:38;3.08;;;2.30;;
10497;SDS011;5296;51.060;13.750;2023-02-03T10:49:41;4.30;;;2.40;;
10497;SDS011;5296;51.060;13.750;2023-02-03T10:54:43;3.60;;;2.00;;
10497;SDS011;5296;51.060;13.750;2023-02-03T10:59:46;3.63;;;2.20;;
10497;SDS011;5296;51.060;13.750;2023-02-03T11:04:48;4.53;;;2.13;;
10497;SDS011;5296;51.060;13.750;2023-02-03T11:10:28;2.15;;;1.95;;
10497;SDS011;5296;51.060;13.750;2023-02-03T11:15:31;2.05;;;1.85;;
10497;SDS011;5296;51.060;13.750;2023-02-03T11:20:32;2.55;;;1.70;;
10497;SDS011;5296;51.060;13.750;2023-02-03T11:25:36;2.53;;;1.88;;
10497;SDS011;5296;51.060;13.750;2023-02-03T11:30:38;1.92;;;1.80;;
10497;SDS011;5296;51.060;13.750;2023-02-03T11:35:39;3.60;;;2.40;;
10497;SDS011;5296;51.060;13.750;2023-02-03T11:40:58;6.57;;;1.80;;
10497;SDS011;5296;51.060;13.750;2023-02-03T11:46:04;2.10;;;1.73;;
10497;SDS011;5296;51.060;13.750;2023-02-03T12:28:31;2.03;;;1.20;;
10497;SDS011;5296;51.060;13.750;2023-02-03T12:34:18;1.30;;;1.15;;
10497;SDS011;5296;51.060;13.750;2023-02-03T12:39:18;1.67;;;1.27;;
10497;SDS011;5296;51.060;13.750;2023-02-03T12:49:49;1.35;;;1.10;;
10497;SDS011;5296;51.060;13.750;2023-02-03T12:55:17;1.75;;;1.17;;
10497;SDS011;5296;51.060;13.750;2023-02-03T13:00:29;1.85;;;1.20;;
10497;SDS011;5296;51.060;13.750;2023-02-03T13:10:58;2.67;;;1.33;;
10497;SDS011;5296;51.060;13.750;2023-02-03T13:16:07;2.72;;;1.40;;
10497;SDS011;5296;51.060;13.750;2023-02-03T13:21:11;3.60;;;1.40;;
10497;SDS011;5296;51.060;13.750;2023-02-03T13:31:53;2.90;;;1.35;;
10497;SDS011;5296;51.060;13.750;2023-02-03T13:37:16;5.50;;;2.03;;
10497;SDS011;5296;51.060;13.750;2023-02-03T13:42:22;4.50;;;1.70;;
10497;SDS011;5296;51.060;13.750;2023-02-03T13:47:29;4.30;;;2.20;;
10497;SDS011;5296;51.060;13.750;2023-02-03T13:57:34;8.30;;;2.63;;
10497;SDS011;5296;51.060;13.750;2023-02-03T14:02:42;9.70;;;2.72;;
10497;SDS011;5296;51.060;13.750;2023-02-03T14:07:45;9.40;;;2.60;;
10497;SDS011;5296;51.060;13.750;2023-02-03T14:17:55;10.98;;;2.47;;
10497;SDS011;5296;51.060;13.750;2023-02-03T14:28:06;8.80;;;2.43;;
10497;SDS011;5296;51.060;13.750;2023-02-03T14:33:10;10.18;;;3.17;;
10497;SDS011;5296;51.060;13.750;2023-02-03T14:38:13;6.25;;;2.47;;
10497;SDS011;5296;51.060;13.750;2023-02-03T14:43:36;6.07;;;2.40;;
10497;SDS011;5296;51.060;13.750;2023-02-03T14:48:50;6.65;;;2.33;;
10497;SDS011;5296;51.060;13.750;2023-02-03T14:59:21;5.35;;;2.20;;
10497;SDS011;5296;51.060;13.750;2023-02-03T15:04:25;8.32;;;2.75;;
10497;SDS011;5296;51.060;13.750;2023-02-03T15:09:32;10.80;;;2.88;;
10497;SDS011;5296;51.060;13.750;2023-02-03T15:14:37;10.13;;;2.75;;
10497;SDS011;5296;51.060;13.750;2023-02-03T15:19:39;8.45;;;2.90;;
10497;SDS011;5296;51.060;13.750;2023-02-03T15:24:42;9.32;;;2.70;;
10497;SDS011;5296;51.060;13.750;2023-02-03T15:29:44;6.57;;;2.60;;
10497;SDS011;5296;51.060;13.750;2023-02-03T15:34:48;8.70;;;3.05;;
10497;SDS011;5296;51.060;13.750;2023-02-03T15:40:06;9.98;;;2.88;;
10497;SDS011;5296;51.060;13.750;2023-02-03T15:45:32;11.02;;;3.03;;
10497;SDS011;5296;51.060;13.750;2023-02-03T15:55:49;8.75;;;3.42;;
10497;SDS011;5296;51.060;13.750;2023-02-03T16:01:02;13.93;;;3.72;;
10497;SDS011;5296;51.060;13.750;2023-02-03T16:11:29;9.52;;;2.65;;
10497;SDS011;5296;51.060;13.750;2023-02-03T16:22:02;12.93;;;3.22;;
10497;SDS011;5296;51.060;13.750;2023-02-03T16:32:28;14.65;;;3.33;;
10497;SDS011;5296;51.060;13.750;2023-02-03T16:37:49;10.13;;;3.22;;
10497;SDS011;5296;51.060;13.750;2023-02-03T16:43:10;9.70;;;2.90;;
10497;SDS011;5296;51.060;13.750;2023-02-03T16:48:31;10.70;;;2.95;;
10497;SDS011;5296;51.060;13.750;2023-02-03T16:53:51;11.40;;;3.15;;
10497;SDS011;5296;51.060;13.750;2023-02-03T16:58:53;7.55;;;2.78;;
10497;SDS011;5296;51.060;13.750;2023-02-03T17:03:55;12.45;;;2.83;;
10497;SDS011;5296;51.060;13.750;2023-02-03T17:08:56;10.02;;;3.08;;
10497;SDS011;5296;51.060;13.750;2023-02-03T17:13:59;11.50;;;3.30;;
10497;SDS011;5296;51.060;13.750;2023-02-03T17:19:01;9.45;;;2.72;;
10497;SDS011;5296;51.060;13.750;2023-02-03T17:24:03;8.23;;;2.95;;
10497;SDS011;5296;51.060;13.750;2023-02-03T17:29:05;10.95;;;3.15;;
10497;SDS011;5296;51.060;13.750;2023-02-03T17:34:06;8.18;;;2.70;;
10497;SDS011;5296;51.060;13.750;2023-02-03T17:39:08;11.32;;;2.70;;
10497;SDS011;5296;51.060;13.750;2023-02-03T17:44:27;12.25;;;2.97;;
10497;SDS011;5296;51.060;13.750;2023-02-03T17:49:47;9.73;;;3.50;;
10497;SDS011;5296;51.060;13.750;2023-02-03T17:55:06;8.88;;;3.17;;
10497;SDS011;5296;51.060;13.750;2023-02-03T18:00:08;10.30;;;2.90;;
10497;SDS011;5296;51.060;13.750;2023-02-03T18:05:13;11.60;;;2.83;;
10497;SDS011;5296;51.060;13.750;2023-02-03T18:10:15;7.80;;;2.70;;
10497;SDS011;5296;51.060;13.750;2023-02-03T18:15:17;11.48;;;2.85;;
10497;SDS011;5296;51.060;13.750;2023-02-03T18:20:18;6.22;;;3.05;;
10497;SDS011;5296;51.060;13.750;2023-02-03T18:25:20;13.23;;;3.60;;
10497;SDS011;5296;51.060;13.750;2023-02-03T18:30:22;11.43;;;2.90;;
10497;SDS011;5296;51.060;13.750;2023-02-03T18:35:23;8.93;;;2.75;;
10497;SDS011;5296;51.060;13.750;2023-02-03T18:40:25;12.52;;;3.03;;
10497;SDS011;5296;51.060;13.750;2023-02-03T18:45:27;10.52;;;3.67;;
10497;SDS011;5296;51.060;13.750;2023-02-03T18:50:29;11.85;;;3.45;;
10497;SDS011;5296;51.060;13.750;2023-02-03T18:55:32;9.05;;;2.92;;
10497;SDS011;5296;51.060;13.750;2023-02-03T19:00:34;10.02;;;3.15;;
10497;SDS011;5296;51.060;13.750;2023-02-03T19:05:40;9.90;;;2.85;;
10497;SDS011;5296;51.060;13.750;2023-02-03T19:10:41;8.52;;;2.72;;
10497;SDS011;5296;51.060;13.750;2023-02-03T19:15:43;11.18;;;2.92;;
10497;SDS011;5296;51.060;13.750;2023-02-03T19:20:45;9.63;;;2.78;;
10497;SDS011;5296;51.060;13.750;2023-02-03T19:25:51;13.90;;;3.13;;
10497;SDS011;5296;51.060;13.750;2023-02-03T19:30:53;8.80;;;2.88;;
10497;SDS011;5296;51.060;13.750;2023-02-03T19:36:06;13.18;;;3.40;;
10497;SDS011;5296;51.060;13.750;2023-02-03T19:41:08;9.18;;;2.88;;
10497;SDS011;5296;51.060;13.750;2023-02-03T19:46:12;11.60;;;2.92;;
10497;SDS011;5296;51.060;13.750;2023-02-03T19:51:14;10.50;;;2.97;;
10497;SDS011;5296;51.060;13.750;2023-02-03T19:56:16;11.93;;;3.55;;
10497;SDS011;5296;51.060;13.750;2023-02-03T20:01:18;13.00;;;3.25;;
10497;SDS011;5296;51.060;13.750;2023-02-03T20:06:26;11.88;;;3.35;;
10497;SDS011;5296;51.060;13.750;2023-02-03T20:11:29;10.73;;;3.25;;
10497;SDS011;5296;51.060;13.750;2023-02-03T20:16:31;11.05;;;3.10;;
10497;SDS011;5296;51.060;13.750;2023-02-03T20:21:33;12.50;;;2.80;;
10497;SDS011;5296;51.060;13.750;2023-02-03T20:26:34;12.40;;;3.10;;
10497;SDS011;5296;51.060;13.750;2023-02-03T20:31:36;11.68;;;2.85;;
10497;SDS011;5296;51.060;13.750;2023-02-03T20:36:38;13.18;;;3.90;;
10497;SDS011;5296;51.060;13.750;2023-02-03T20:41:39;12.98;;;2.83;;
10497;SDS011;5296;51.060;13.750;2023-02-03T20:46:41;10.57;;;2.85;;
10497;SDS011;5296;51.060;13.750;2023-02-03T20:51:43;8.70;;;2.88;;
10497;SDS011;5296;51.060;13.750;2023-02-03T20:56:44;9.88;;;3.35;;
10497;SDS011;5296;51.060;13.750;2023-02-03T21:01:46;10.20;;;2.60;;
10497;SDS011;5296;51.060;13.750;2023-02-03T21:06:48;9.95;;;3.00;;
10497;SDS011;5296;51.060;13.750;2023-02-03T21:11:50;8.82;;;3.05;;
10497;SDS011;5296;51.060;13.750;2023-02-03T21:16:52;10.55;;;3.13;;
10497;SDS011;5296;51.060;13.750;2023-02-03T21:21:55;11.30;;;2.92;;
10497;SDS011;5296;51.060;13.750;2023-02-03T21:26:57;12.30;;;3.25;;
10497;SDS011;5296;51.060;13.750;2023-02-03T21:32:00;12.10;;;2.72;;
10497;SDS011;5296;51.060;13.750;2023-02-03T21:42:34;9.93;;;3.03;;
10497;SDS011;5296;51.060;13.750;2023-02-03T21:47:43;6.00;;;2.97;;
10497;SDS011;5296;51.060;13.750;2023-02-03T21:52:45;8.77;;;3.25;;
10497;SDS011;5296;51.060;13.750;2023-02-03T21:57:47;9.70;;;2.80;;
10497;SDS011;5296;51.060;13.750;2023-02-03T22:02:57;9.45;;;2.47;;
10497;SDS011;5296;51.060;13.750;2023-02-03T22:08:01;9.05;;;3.22;;
10497;SDS011;5296;51.060;13.750;2023-02-03T22:13:13;8.63;;;2.55;;
10497;SDS011;5296;51.060;13.750;2023-02-03T22:18:15;8.65;;;2.95;;
10497;SDS011;5296;51.060;13.750;2023-02-03T22:23:17;9.82;;;2.50;;
10497;SDS011;5296;51.060;13.750;2023-02-03T22:28:19;10.85;;;2.95;;
10497;SDS011;5296;51.060;13.750;2023-02-03T22:33:21;9.27;;;2.55;;
10497;SDS011;5296;51.060;13.750;2023-02-03T22:38:22;8.93;;;2.88;;
10497;SDS011;5296;51.060;13.750;2023-02-03T22:43:24;8.77;;;2.33;;
10497;SDS011;5296;51.060;13.750;2023-02-03T22:48:27;7.00;;;2.20;;
10497;SDS011;5296;51.060;13.750;2023-02-03T22:53:29;6.07;;;2.03;;
10497;SDS011;5296;51.060;13.750;2023-02-03T22:58:31;9.25;;;2.70;;
10497;SDS011;5296;51.060;13.750;2023-02-03T23:03:32;7.93;;;2.25;;
10497;SDS011;5296;51.060;13.750;2023-02-03T23:08:34;3.97;;;2.00;;
10497;SDS011;5296;51.060;13.750;2023-02-03T23:13:36;7.15;;;1.80;;
10497;SDS011;5296;51.060;13.750;2023-02-03T23:18:37;5.55;;;1.88;;
10497;SDS011;5296;51.060;13.750;2023-02-03T23:23:39;5.18;;;1.80;;
10497;SDS011;5296;51.060;13.750;2023-02-03T23:28:41;4.18;;;1.92;;
10497;SDS011;5296;51.060;13.750;2023-02-03T23:33:43;6.13;;;1.90;;
10497;SDS011;5296;51.060;13.750;2023-02-03T23:39:05;5.75;;;2.28;;
10497;SDS011;5296;51.060;13.750;2023-02-03T23:44:08;5.50;;;1.60;;
10497;SDS011;5296;51.060;13.750;2023-02-03T23:49:11;5.35;;;1.95;;
10497;SDS011;5296;51.060;13.750;2023-02-03T23:54:12;9.73;;;2.33;;
10497;SDS011;5296;51.060;13.750;2023-02-03T23:59:14;3.20;;;1.20;;
